KCHO/CHO METAR and TAF weather

Enter ICAO airport designator
Station Type Date Time Source
KCHO METAR 2018/04/19 12:53 UTC NOAA

KCHO 191253Z 18005KT 10SM CLR 12/10 A2973 RMK AO2 RAE22 SLP064 P0000 T01220100


Station Type Date Time Source
KCHO Decoded METAR 2018/04/19 12:53 UTC NOAA

CHARLOTTESVILLE-ALBEMARLE, VA, United States (KCHO) 38-08N 078-27W 192M
Apr 19, 2018 - 08:53 AM EDT / 2018.04.19 1253 UTC
Wind: from the S (180 degrees) at 6 MPH (5 KT):0
Visibility: 10 mile(s):0
Sky conditions: clear
Precipitation last hour: A trace
Temperature: 54.0 F (12.2 C)
Dew Point: 50.0 F (10.0 C)
Relative Humidity: 86%
Pressure (altimeter): 29.73 in. Hg (1006 hPa)
ob: KCHO 191253Z 18005KT 10SM CLR 12/10 A2973 RMK AO2 RAE22 SLP064 P0000 T01220100
cycle: 13

Station Type Date Time Source
KCHO TAF 2018/04/19 12:34 UTC NOAA

TAF KCHO 191132Z 1912/2012 25010G20KT P6SM SCT070
FM191500 28015G27KT P6SM SCT045
FM192300 31012G23KT P6SM SKC
FM200200 32008KT P6SM SKC


Example: see airport list